Time;durP1;ratioP1;P1;durP2;ratioP2;P2;SDS_P1;SDS_P2;PMS_P1;PMS_P2;Temp;Humidity;BMP_temperature;BMP_pressure;BME280_temperature;BME280_humidity;BME280_pressure;Samples;Min_cycle;Max_cycle;Signal;HPM_P1;HPM_P2
2023/06/29 00:00:15;;;;;;;38.72;26.65;;;18.90;99.90;;;;;;4964927;28;207909;-70
2023/06/29 00:02:41;;;;;;;36.40;26.23;;;18.90;99.90;;;;;;5012563;28;20557;-70
2023/06/29 00:05:09;;;;;;;39.70;28.73;;;18.90;99.90;;;;;;4966016;28;213022;-70
2023/06/29 00:07:35;;;;;;;43.15;26.45;;;18.90;99.90;;;;;;5007551;28;20069;-70
2023/06/29 00:10:01;;;;;;;38.45;27.42;;;18.90;99.90;;;;;;4971489;28;207200;-69
2023/06/29 00:12:27;;;;;;;41.58;28.35;;;18.90;99.90;;;;;;5005329;28;20177;-70
2023/06/29 00:14:54;;;;;;;42.05;28.00;;;18.90;99.90;;;;;;4945575;28;205458;-69
2023/06/29 00:17:20;;;;;;;40.53;26.88;;;18.90;99.90;;;;;;4995414;28;20454;-69
2023/06/29 00:19:49;;;;;;;35.55;24.88;;;18.90;99.90;;;;;;4950142;28;207802;-70
2023/06/29 00:22:15;;;;;;;40.80;28.48;;;18.90;99.90;;;;;;4999973;28;20085;-70
2023/06/29 00:24:44;;;;;;;37.00;25.52;;;18.90;99.90;;;;;;4945800;28;206939;-70
2023/06/29 00:27:12;;;;;;;36.95;26.38;;;18.90;99.90;;;;;;5002738;28;20050;-70
2023/06/29 00:29:41;;;;;;;38.17;27.02;;;18.90;99.90;;;;;;4931382;28;215627;-70
2023/06/29 00:32:09;;;;;;;39.80;27.35;;;19.00;99.90;;;;;;4992076;28;20059;-71
2023/06/29 00:34:35;;;;;;;39.75;27.75;;;18.90;99.90;;;;;;4941896;28;207244;-70
2023/06/29 00:37:01;;;;;;;38.28;27.55;;;18.90;99.90;;;;;;4995528;28;20065;-70
2023/06/29 00:39:27;;;;;;;40.25;27.23;;;18.90;99.90;;;;;;4950139;28;218844;-70
2023/06/29 00:41:54;;;;;;;42.17;28.75;;;18.90;99.90;;;;;;5008547;28;20615;-70
2023/06/29 00:44:21;;;;;;;37.10;26.80;;;18.90;99.90;;;;;;4935994;28;221858;-70
2023/06/29 00:46:49;;;;;;;38.22;27.38;;;18.90;99.90;;;;;;5000230;28;20057;-71
2023/06/29 00:49:16;;;;;;;41.42;27.73;;;18.90;99.90;;;;;;4939015;28;207098;-70
2023/06/29 00:51:45;;;;;;;38.60;26.65;;;18.90;99.90;;;;;;4995286;28;20061;-70
2023/06/29 00:54:11;;;;;;;39.13;27.27;;;18.80;99.90;;;;;;4930396;28;208671;-70
2023/06/29 00:56:38;;;;;;;42.20;27.40;;;18.90;99.90;;;;;;5000236;28;20088;-70
2023/06/29 00:59:04;;;;;;;40.92;27.85;;;18.80;99.90;;;;;;4944796;28;208340;-70
2023/06/29 01:01:31;;;;;;;41.28;29.70;;;18.80;99.90;;;;;;5009959;28;20507;-71
2023/06/29 01:03:57;;;;;;;40.57;27.30;;;18.80;99.90;;;;;;4933570;28;215349;-72
2023/06/29 01:06:31;;;;;;;38.00;26.40;;;18.80;99.90;;;;;;4969177;28;20058;-71
2023/06/29 01:09:06;;;;;;;39.80;28.00;;;18.90;99.90;;;;;;4921314;28;208208;-71
2023/06/29 01:11:34;;;;;;;40.20;26.52;;;18.90;99.90;;;;;;5000027;28;20496;-71
2023/06/29 01:14:04;;;;;;;38.53;28.60;;;18.90;99.90;;;;;;4926462;28;215306;-70
2023/06/29 01:16:33;;;;;;;40.17;28.50;;;18.90;99.90;;;;;;4973537;28;20057;-70
2023/06/29 01:19:02;;;;;;;39.23;27.33;;;18.90;99.90;;;;;;4936566;28;209611;-70
2023/06/29 01:21:30;;;;;;;39.47;26.58;;;18.90;99.90;;;;;;5007609;28;20055;-71
2023/06/29 01:23:58;;;;;;;39.60;27.83;;;18.80;99.90;;;;;;4935110;28;207957;-70
2023/06/29 01:26:25;;;;;;;39.00;27.23;;;18.80;99.90;;;;;;5001488;28;20054;-71
2023/06/29 01:28:51;;;;;;;40.00;27.60;;;18.80;99.90;;;;;;4928452;28;207676;-70
2023/06/29 01:31:17;;;;;;;36.50;26.65;;;18.80;99.90;;;;;;4973486;28;20050;-71
2023/06/29 01:33:45;;;;;;;40.42;27.35;;;18.80;99.90;;;;;;4967606;28;207042;-68
2023/06/29 01:36:22;;;;;;;35.78;26.98;;;18.80;99.90;;;;;;4968213;28;20307;-71
2023/06/29 01:38:59;;;;;;;39.67;28.23;;;18.80;99.90;;;;;;4957894;28;209509;-69
2023/06/29 01:41:26;;;;;;;40.53;26.25;;;18.80;99.90;;;;;;5032071;28;20037;-70
2023/06/29 01:43:52;;;;;;;41.65;27.45;;;18.80;99.90;;;;;;4952046;28;217152;-70
2023/06/29 01:46:20;;;;;;;37.05;27.02;;;18.80;99.90;;;;;;5008114;28;20053;-71
2023/06/29 01:48:46;;;;;;;38.03;28.48;;;18.80;99.90;;;;;;4948486;28;201747;-69
2023/06/29 01:51:13;;;;;;;42.50;28.48;;;18.80;99.90;;;;;;5004616;28;20057;-70
2023/06/29 01:53:39;;;;;;;39.05;27.77;;;18.80;99.90;;;;;;4981121;28;207632;-70
2023/06/29 01:56:05;;;;;;;38.60;28.20;;;18.80;99.90;;;;;;4960691;28;177265;-71
2023/06/29 01:58:31;;;;;;;37.50;27.92;;;18.80;99.90;;;;;;4985121;28;20054;-71
2023/06/29 02:00:57;;;;;;;42.15;27.48;;;18.80;99.90;;;;;;4936941;28;209089;-71
2023/06/29 02:03:23;;;;;;;39.33;27.35;;;18.80;99.90;;;;;;4983677;28;20066;-70
2023/06/29 02:05:50;;;;;;;38.38;26.88;;;18.80;99.90;;;;;;4958331;28;208964;-70
2023/06/29 02:08:16;;;;;;;36.42;26.45;;;18.70;99.90;;;;;;4986130;28;20054;-71
2023/06/29 02:10:42;;;;;;;39.08;27.02;;;18.70;99.90;;;;;;4933376;28;206163;-70
2023/06/29 02:13:08;;;;;;;41.78;27.80;;;18.80;99.90;;;;;;4983567;28;20050;-70
2023/06/29 02:15:34;;;;;;;39.45;26.58;;;18.80;99.90;;;;;;4967612;28;175813;-70
2023/06/29 02:18:00;;;;;;;38.45;26.63;;;18.70;99.90;;;;;;4984608;28;20046;-70
2023/06/29 02:20:26;;;;;;;39.50;26.33;;;18.70;99.90;;;;;;4967558;28;207549;-70
2023/06/29 02:22:52;;;;;;;37.30;25.58;;;18.70;99.90;;;;;;4989052;28;20558;-70
2023/06/29 02:25:19;;;;;;;38.42;26.90;;;18.70;99.90;;;;;;4946079;28;212513;-70
2023/06/29 02:27:45;;;;;;;37.08;26.63;;;18.70;99.90;;;;;;4990021;28;20057;-71
2023/06/29 02:30:12;;;;;;;40.75;26.63;;;18.70;99.90;;;;;;4943749;28;210380;-72
2023/06/29 02:32:38;;;;;;;36.85;25.90;;;18.70;99.90;;;;;;4984249;28;20686;-70
2023/06/29 02:35:05;;;;;;;37.33;26.52;;;18.70;99.90;;;;;;4949584;28;207852;-71
2023/06/29 02:37:31;;;;;;;34.17;26.35;;;18.70;99.90;;;;;;4994754;28;20050;-70
2023/06/29 02:39:57;;;;;;;39.35;27.45;;;18.70;99.90;;;;;;4955433;28;208575;-70
2023/06/29 02:42:23;;;;;;;38.13;26.30;;;18.70;99.90;;;;;;4999841;28;20085;-70
2023/06/29 02:44:49;;;;;;;40.88;26.23;;;18.70;99.90;;;;;;4955582;28;215723;-70
2023/06/29 02:47:15;;;;;;;37.72;26.65;;;18.70;99.90;;;;;;5001518;28;20065;-69
2023/06/29 02:49:41;;;;;;;40.67;26.00;;;18.70;99.90;;;;;;4940812;28;209781;-71
2023/06/29 02:52:08;;;;;;;35.20;25.23;;;18.70;99.90;;;;;;4990567;28;20050;-71
2023/06/29 02:54:34;;;;;;;36.55;25.45;;;18.70;99.90;;;;;;4915709;28;234454;-71
2023/06/29 02:57:00;;;;;;;33.90;24.85;;;18.70;99.90;;;;;;4984890;28;20059;-71
2023/06/29 02:59:26;;;;;;;34.50;24.58;;;18.70;99.90;;;;;;4936624;28;206128;-70
2023/06/29 03:01:52;;;;;;;34.63;24.33;;;18.70;99.90;;;;;;4988486;28;20050;-69
2023/06/29 03:04:18;;;;;;;35.58;24.70;;;18.70;99.90;;;;;;4950603;28;210513;-71
2023/06/29 03:06:45;;;;;;;35.05;24.25;;;18.70;99.90;;;;;;5002698;28;20047;-70
2023/06/29 03:09:11;;;;;;;37.83;24.17;;;18.70;99.90;;;;;;4937519;28;215036;-70
2023/06/29 03:11:37;;;;;;;31.73;23.42;;;18.70;99.90;;;;;;5009526;28;20168;-70
2023/06/29 03:14:03;;;;;;;35.55;23.20;;;18.70;99.90;;;;;;4937304;28;207704;-70
2023/06/29 03:16:29;;;;;;;33.13;23.20;;;18.70;99.90;;;;;;5011818;28;20519;-70
2023/06/29 03:18:55;;;;;;;35.53;23.67;;;18.70;99.90;;;;;;4937191;28;217456;-70
2023/06/29 03:21:21;;;;;;;33.08;23.38;;;18.70;99.90;;;;;;5021478;28;20495;-70
2023/06/29 03:23:48;;;;;;;34.35;23.60;;;18.70;99.90;;;;;;4957355;28;207457;-70
2023/06/29 03:26:14;;;;;;;34.88;24.65;;;18.70;99.90;;;;;;5003009;28;20058;-70
2023/06/29 03:28:40;;;;;;;35.13;24.13;;;18.70;99.90;;;;;;4976099;28;205460;-70
2023/06/29 03:31:06;;;;;;;35.17;24.67;;;18.70;99.90;;;;;;4959055;28;279750;-70
2023/06/29 03:33:32;;;;;;;34.40;24.88;;;18.70;99.90;;;;;;4988064;28;20054;-70
2023/06/29 03:35:58;;;;;;;32.92;23.80;;;18.70;99.90;;;;;;4942492;28;209528;-70
2023/06/29 03:38:25;;;;;;;34.80;23.88;;;18.70;99.90;;;;;;4990285;28;20058;-70
2023/06/29 03:40:51;;;;;;;33.10;22.92;;;18.70;99.90;;;;;;4923727;28;207142;-71
2023/06/29 03:43:17;;;;;;;38.28;25.08;;;18.70;99.90;;;;;;4988821;28;20046;-71
2023/06/29 03:45:43;;;;;;;34.78;24.30;;;18.70;99.90;;;;;;4922698;28;207458;-70
2023/06/29 03:48:09;;;;;;;34.20;23.45;;;18.70;99.90;;;;;;4985954;28;20066;-70
2023/06/29 03:50:35;;;;;;;32.08;23.38;;;18.70;99.90;;;;;;4936640;28;231758;-70
2023/06/29 03:53:01;;;;;;;32.72;23.15;;;18.70;99.90;;;;;;4983921;28;20061;-70
2023/06/29 03:55:27;;;;;;;35.13;23.17;;;18.80;99.90;;;;;;4931705;28;209580;-70
2023/06/29 03:57:54;;;;;;;31.63;23.08;;;18.80;99.90;;;;;;4988602;28;20091;-70
2023/06/29 04:00:20;;;;;;;36.97;24.20;;;18.80;99.90;;;;;;4973269;28;209856;-70
2023/06/29 04:02:46;;;;;;;32.88;22.98;;;18.80;99.90;;;;;;4998732;28;20031;-70
2023/06/29 04:05:12;;;;;;;33.17;23.25;;;18.80;99.90;;;;;;4937159;28;207340;-70
2023/06/29 04:07:39;;;;;;;33.47;23.52;;;18.90;99.90;;;;;;4987708;28;20518;-69
2023/06/29 04:10:05;;;;;;;32.08;22.73;;;18.90;99.90;;;;;;4940466;28;207876;-71
2023/06/29 04:12:31;;;;;;;30.48;22.85;;;18.90;99.90;;;;;;4996202;28;20054;-70
2023/06/29 04:14:57;;;;;;;30.50;21.45;;;18.90;99.90;;;;;;4940555;28;207622;-69
2023/06/29 04:17:23;;;;;;;30.02;21.05;;;19.00;99.90;;;;;;4989943;28;20069;-70
2023/06/29 04:19:50;;;;;;;28.38;20.90;;;19.00;99.90;;;;;;4961831;28;213012;-70
2023/06/29 04:22:16;;;;;;;29.02;20.55;;;19.00;99.90;;;;;;5018407;28;20056;-69
2023/06/29 04:24:42;;;;;;;28.77;20.35;;;19.10;99.90;;;;;;4961787;28;209017;-69
2023/06/29 04:27:08;;;;;;;30.98;20.65;;;19.10;99.90;;;;;;5002279;28;20050;-70
2023/06/29 04:29:34;;;;;;;29.17;20.45;;;19.10;99.90;;;;;;4954461;28;212061;-70
2023/06/29 04:32:00;;;;;;;28.98;19.45;;;19.20;99.90;;;;;;5005634;28;20054;-70
2023/06/29 04:34:26;;;;;;;26.83;18.88;;;19.10;99.90;;;;;;4944174;28;207655;-69
2023/06/29 04:36:56;;;;;;;27.65;18.73;;;19.20;99.90;;;;;;5000023;28;20431;-70
2023/06/29 04:39:22;;;;;;;30.17;19.95;;;19.30;99.90;;;;;;4947754;28;210486;-69
2023/06/29 04:41:48;;;;;;;28.35;19.58;;;19.30;99.90;;;;;;5013072;28;20050;-70
2023/06/29 04:44:14;;;;;;;29.55;19.63;;;19.30;99.90;;;;;;4946965;28;207391;-69
2023/06/29 04:46:40;;;;;;;29.33;20.35;;;19.40;99.90;;;;;;5003269;28;20070;-69
2023/06/29 04:49:07;;;;;;;28.45;19.48;;;19.40;99.90;;;;;;4939425;28;210698;-70
2023/06/29 04:51:34;;;;;;;30.42;19.50;;;19.50;99.90;;;;;;5009993;28;20061;-70
2023/06/29 04:54:00;;;;;;;26.48;19.30;;;19.50;99.90;;;;;;4916221;28;209851;-70
2023/06/29 04:56:26;;;;;;;28.13;19.83;;;19.50;99.90;;;;;;5004542;28;20046;-71
2023/06/29 04:58:52;;;;;;;27.52;19.75;;;19.60;99.90;;;;;;4936018;28;208951;-70
2023/06/29 05:01:19;;;;;;;29.80;20.55;;;19.60;99.90;;;;;;5032080;28;20058;-71
2023/06/29 05:03:45;;;;;;;28.42;19.33;;;19.60;99.90;;;;;;4944295;28;212026;-70
2023/06/29 05:06:11;;;;;;;27.77;19.98;;;19.60;99.90;;;;;;4965233;28;20057;-71
2023/06/29 05:08:37;;;;;;;27.08;19.35;;;19.60;99.90;;;;;;4995158;28;20053;-71
2023/06/29 05:11:03;;;;;;;29.88;19.48;;;19.70;99.90;;;;;;4971323;28;185540;-69
2023/06/29 05:13:29;;;;;;;29.55;18.77;;;19.70;99.90;;;;;;4993453;28;20061;-70
2023/06/29 05:15:55;;;;;;;30.60;19.70;;;19.80;99.90;;;;;;4956497;28;218468;-70
2023/06/29 05:18:22;;;;;;;30.13;19.60;;;19.80;99.90;;;;;;4988302;28;20527;-70
2023/06/29 05:20:48;;;;;;;27.50;18.60;;;19.80;99.90;;;;;;4931186;28;206521;-69
2023/06/29 05:23:14;;;;;;;29.10;19.77;;;19.90;99.90;;;;;;4990477;28;20057;-70
2023/06/29 05:25:41;;;;;;;27.95;19.77;;;19.90;99.90;;;;;;4925780;28;207636;-71
2023/06/29 05:28:07;;;;;;;28.02;19.98;;;19.90;99.90;;;;;;4990241;28;20058;-71
2023/06/29 05:30:34;;;;;;;28.50;20.17;;;20.00;99.90;;;;;;4961864;28;144514;-70
2023/06/29 05:33:00;;;;;;;26.88;19.75;;;20.10;99.90;;;;;;5014717;28;20628;-71
2023/06/29 05:35:26;;;;;;;28.35;19.23;;;20.10;99.90;;;;;;4973008;28;227918;-70
2023/06/29 05:37:53;;;;;;;25.35;18.23;;;20.20;99.90;;;;;;4992469;28;20050;-70
2023/06/29 05:40:19;;;;;;;27.20;18.95;;;20.20;99.90;;;;;;4936955;28;206963;-71
2023/06/29 05:42:45;;;;;;;32.40;19.52;;;20.30;99.90;;;;;;4985545;28;20054;-70
2023/06/29 05:45:12;;;;;;;28.88;19.88;;;20.30;99.90;;;;;;4938875;28;223891;-70
2023/06/29 05:47:38;;;;;;;27.33;18.75;;;20.30;99.90;;;;;;4993878;28;20518;-71
2023/06/29 05:50:05;;;;;;;28.30;19.40;;;20.30;99.90;;;;;;4937890;28;210175;-70
2023/06/29 05:52:33;;;;;;;31.48;20.13;;;20.40;99.90;;;;;;4986762;28;20046;-70
2023/06/29 05:55:00;;;;;;;29.42;20.15;;;20.40;99.90;;;;;;4947126;28;219586;-71
2023/06/29 05:57:26;;;;;;;29.13;20.30;;;20.30;99.90;;;;;;5003419;28;20062;-71
2023/06/29 05:59:52;;;;;;;31.55;21.10;;;20.40;99.90;;;;;;4935300;28;212442;-71
2023/06/29 06:02:18;;;;;;;31.00;21.13;;;20.40;99.90;;;;;;4984916;28;20046;-70
2023/06/29 06:04:45;;;;;;;30.23;21.02;;;20.40;99.90;;;;;;4931002;28;223097;-70
2023/06/29 06:07:14;;;;;;;30.10;21.08;;;20.50;99.90;;;;;;4988172;28;20054;-70
2023/06/29 06:09:41;;;;;;;27.20;20.63;;;20.40;99.90;;;;;;4929137;28;211688;-70
2023/06/29 06:12:07;;;;;;;31.75;21.17;;;20.40;99.90;;;;;;4998832;28;20057;-72
2023/06/29 06:14:33;;;;;;;28.87;20.30;;;20.40;99.90;;;;;;4934421;28;210258;-72
2023/06/29 06:17:00;;;;;;;27.40;20.65;;;20.40;99.90;;;;;;5002966;28;20069;-72
2023/06/29 06:19:26;;;;;;;31.15;21.60;;;20.40;99.90;;;;;;4940439;28;209018;-71
2023/06/29 06:21:52;;;;;;;29.40;21.40;;;20.40;99.90;;;;;;5004039;28;20062;-72
2023/06/29 06:24:18;;;;;;;31.80;22.83;;;20.50;99.90;;;;;;4944731;28;216729;-71
2023/06/29 06:26:44;;;;;;;29.83;22.38;;;20.50;99.90;;;;;;4993162;28;20057;-71
2023/06/29 06:29:10;;;;;;;28.73;21.88;;;20.50;99.90;;;;;;4989574;28;20153;-72
2023/06/29 06:31:36;;;;;;;30.70;21.67;;;20.60;99.90;;;;;;4944586;28;272736;-71
2023/06/29 06:34:02;;;;;;;32.35;22.13;;;20.60;99.90;;;;;;4986916;28;20530;-70
2023/06/29 06:36:30;;;;;;;34.08;21.20;;;20.60;99.90;;;;;;4950203;28;208239;-70
2023/06/29 06:38:56;;;;;;;33.00;22.00;;;20.60;99.90;;;;;;4988404;28;20061;-72
2023/06/29 06:41:22;;;;;;;30.30;21.38;;;20.70;99.90;;;;;;4954793;28;206791;-71
2023/06/29 06:43:48;;;;;;;32.60;22.65;;;20.70;99.90;;;;;;5007981;28;20049;-72
2023/06/29 06:46:14;;;;;;;28.77;21.17;;;20.70;99.90;;;;;;4949050;28;222256;-72
2023/06/29 06:48:40;;;;;;;31.75;22.30;;;20.70;99.90;;;;;;4991854;28;20046;-72
2023/06/29 06:51:09;;;;;;;29.60;21.08;;;20.80;99.90;;;;;;4969326;28;207531;-71
2023/06/29 06:53:35;;;;;;;28.92;19.92;;;20.80;99.90;;;;;;4989732;28;20431;-70
2023/06/29 06:56:04;;;;;;;29.25;21.10;;;20.80;99.90;;;;;;4923766;28;219356;-70
2023/06/29 06:58:30;;;;;;;27.83;19.88;;;20.90;99.90;;;;;;4995069;28;20050;-70
2023/06/29 07:00:56;;;;;;;27.77;20.70;;;20.90;99.90;;;;;;4967055;28;207430;-69
2023/06/29 07:03:24;;;;;;;31.42;20.50;;;20.70;99.90;;;;;;4995869;28;20065;-70
2023/06/29 07:05:50;;;;;;;30.30;20.98;;;20.70;99.90;;;;;;4934646;28;204954;-70
2023/06/29 07:08:16;;;;;;;29.20;20.52;;;20.70;99.90;;;;;;4990719;28;20055;-70
2023/06/29 07:10:42;;;;;;;28.70;20.27;;;20.70;99.90;;;;;;4947998;28;209116;-71
2023/06/29 07:13:09;;;;;;;30.05;19.95;;;20.70;99.90;;;;;;4991998;28;20062;-70
2023/06/29 07:15:35;;;;;;;30.50;20.15;;;20.70;99.90;;;;;;4960470;28;207579;-70
2023/06/29 07:18:01;;;;;;;32.97;20.67;;;20.70;99.90;;;;;;4986307;28;20500;-70
2023/06/29 07:20:27;;;;;;;29.23;21.17;;;20.70;99.90;;;;;;4942641;28;204721;-70
2023/06/29 07:22:53;;;;;;;32.15;20.58;;;20.70;99.90;;;;;;4982408;28;20069;-70
2023/06/29 07:25:19;;;;;;;31.35;21.15;;;20.60;99.90;;;;;;4947638;28;53057;-69
2023/06/29 07:27:45;;;;;;;31.95;20.77;;;20.70;99.90;;;;;;4986008;28;20065;-70
2023/06/29 07:30:12;;;;;;;32.40;20.85;;;20.60;99.90;;;;;;4940602;28;207984;-69
2023/06/29 07:32:38;;;;;;;32.72;20.85;;;20.60;99.90;;;;;;4988082;28;20054;-71
2023/06/29 07:35:05;;;;;;;31.50;21.15;;;20.60;99.90;;;;;;4942741;28;93986;-71
2023/06/29 07:37:31;;;;;;;32.05;20.10;;;20.60;99.90;;;;;;4996106;28;20047;-71
2023/06/29 07:39:57;;;;;;;31.30;21.15;;;20.60;99.90;;;;;;4938158;28;213138;-71
2023/06/29 07:42:23;;;;;;;30.77;20.35;;;20.60;99.90;;;;;;5008937;28;20107;-71
2023/06/29 07:44:50;;;;;;;28.52;20.65;;;20.60;99.90;;;;;;4929827;28;210960;-69
2023/06/29 07:47:16;;;;;;;32.63;21.45;;;20.60;99.90;;;;;;4999349;28;20042;-69
2023/06/29 07:49:42;;;;;;;28.65;20.80;;;20.60;99.90;;;;;;4931914;28;210317;-70
2023/06/29 07:52:08;;;;;;;27.92;20.17;;;20.70;99.90;;;;;;4977102;28;20515;-69
2023/06/29 07:54:34;;;;;;;30.02;21.27;;;20.80;99.90;;;;;;4924870;28;207132;-70
2023/06/29 07:57:00;;;;;;;28.50;20.38;;;20.80;99.90;;;;;;5001912;28;20061;-70
2023/06/29 07:59:26;;;;;;;31.90;21.10;;;20.90;99.90;;;;;;4930937;28;209452;-70
2023/06/29 08:01:53;;;;;;;29.23;20.95;;;21.00;99.90;;;;;;5000995;28;20050;-72
2023/06/29 08:04:19;;;;;;;31.10;19.97;;;21.20;99.90;;;;;;4939288;28;213117;-71
2023/06/29 08:06:45;;;;;;;30.17;20.35;;;21.20;99.90;;;;;;5001921;28;20046;-69
2023/06/29 08:09:11;;;;;;;27.23;20.48;;;21.30;99.90;;;;;;4980055;28;207721;-67
2023/06/29 08:11:38;;;;;;;30.90;20.48;;;21.40;99.90;;;;;;4964186;28;184365;-69
2023/06/29 08:14:05;;;;;;;31.73;20.63;;;21.50;99.90;;;;;;4995248;28;20043;-70
2023/06/29 08:16:31;;;;;;;25.67;19.92;;;21.70;99.90;;;;;;4968811;28;20045;-69
2023/06/29 08:18:58;;;;;;;28.77;20.63;;;21.80;99.90;;;;;;4992719;28;20050;-72
2023/06/29 08:21:25;;;;;;;26.90;19.50;;;21.90;99.90;;;;;;4972203;28;208625;-72
2023/06/29 08:23:51;;;;;;;28.38;20.00;;;22.10;99.90;;;;;;5010005;28;20046;-72
2023/06/29 08:26:17;;;;;;;30.20;19.50;;;22.10;99.90;;;;;;4975024;28;212677;-72
2023/06/29 08:28:44;;;;;;;29.00;19.23;;;22.30;99.90;;;;;;4992951;28;20916;-72
2023/06/29 08:31:10;;;;;;;30.13;20.23;;;22.30;99.90;;;;;;4968934;28;210371;-72
2023/06/29 08:33:36;;;;;;;28.92;19.83;;;22.30;99.90;;;;;;4994501;28;20058;-71
2023/06/29 08:36:02;;;;;;;30.75;20.98;;;22.40;99.90;;;;;;4965559;28;212250;-71
2023/06/29 08:38:28;;;;;;;32.92;21.08;;;22.40;99.90;;;;;;4998119;28;20054;-70
2023/06/29 08:40:58;;;;;;;28.98;20.90;;;22.50;99.90;;;;;;4950747;28;207797;-71
2023/06/29 08:43:24;;;;;;;30.75;21.85;;;22.50;99.90;;;;;;4993334;28;20058;-71
2023/06/29 08:45:50;;;;;;;30.80;21.05;;;22.60;99.90;;;;;;4957082;28;208690;-70
2023/06/29 08:48:23;;;;;;;29.40;22.90;;;22.70;99.90;;;;;;4994185;28;20124;-69
2023/06/29 08:51:02;;;;;;;30.52;22.92;;;22.70;99.90;;;;;;4957562;28;212038;-71
2023/06/29 08:53:28;;;;;;;33.85;23.60;;;22.60;99.90;;;;;;4990578;28;20065;-71
2023/06/29 08:55:56;;;;;;;31.40;23.50;;;22.60;99.90;;;;;;4936385;28;235819;-71
2023/06/29 08:58:24;;;;;;;34.45;23.92;;;22.50;99.90;;;;;;4995014;28;20058;-70
2023/06/29 09:00:53;;;;;;;32.50;23.80;;;22.70;99.90;;;;;;4955031;28;218117;-71
2023/06/29 09:03:21;;;;;;;32.13;24.38;;;22.60;99.90;;;;;;4995866;28;20050;-72
2023/06/29 09:05:47;;;;;;;35.17;24.40;;;22.50;99.90;;;;;;4966371;28;214920;-72
2023/06/29 09:08:13;;;;;;;32.80;22.83;;;22.60;99.90;;;;;;4993749;28;20570;-72
2023/06/29 09:10:41;;;;;;;32.45;23.77;;;22.50;99.90;;;;;;4945889;28;225988;-70
2023/06/29 09:13:10;;;;;;;30.90;21.77;;;22.50;99.90;;;;;;4987065;28;20069;-70
2023/06/29 09:15:39;;;;;;;31.88;21.73;;;22.50;99.90;;;;;;4951349;28;207618;-71
2023/06/29 09:18:06;;;;;;;31.88;22.95;;;22.40;99.90;;;;;;4995763;28;20077;-71
2023/06/29 09:20:36;;;;;;;33.13;22.98;;;22.30;99.90;;;;;;4955033;28;215568;-70
2023/06/29 09:23:04;;;;;;;31.05;22.33;;;22.40;99.90;;;;;;4988384;28;20047;-69
2023/06/29 09:25:33;;;;;;;30.95;23.27;;;22.50;99.90;;;;;;4920744;28;216071;-70
2023/06/29 09:28:07;;;;;;;31.65;22.75;;;22.60;99.90;;;;;;4991980;28;20499;-71
2023/06/29 09:30:41;;;;;;;31.17;22.45;;;22.60;99.90;;;;;;4948207;28;222376;-70
2023/06/29 09:33:12;;;;;;;31.05;23.42;;;22.60;99.90;;;;;;4975787;28;20057;-71
2023/06/29 09:35:40;;;;;;;31.95;23.08;;;22.60;99.90;;;;;;4933522;28;212806;-71
2023/06/29 09:38:06;;;;;;;32.35;24.60;;;22.60;99.90;;;;;;4987294;28;20062;-71
2023/06/29 09:40:52;;;;;;;33.17;24.75;;;22.60;99.90;;;;;;4955367;28;208749;-70
2023/06/29 09:43:25;;;;;;;34.30;24.42;;;22.60;99.90;;;;;;4994925;28;20054;-71
2023/06/29 09:45:57;;;;;;;29.20;22.80;;;22.60;99.90;;;;;;4956268;28;208300;-71
2023/06/29 09:48:23;;;;;;;31.38;23.10;;;22.60;99.90;;;;;;4990658;28;20042;-70
2023/06/29 09:50:52;;;;;;;30.83;22.02;;;22.60;99.90;;;;;;4966016;28;207580;-71
2023/06/29 09:53:30;;;;;;;32.72;22.45;;;22.50;99.90;;;;;;5014141;28;20053;-70
2023/06/29 09:56:01;;;;;;;32.47;23.35;;;22.40;99.90;;;;;;4929587;28;199189;-70
2023/06/29 09:58:29;;;;;;;34.28;23.10;;;22.40;99.90;;;;;;5014925;28;20065;-69
2023/06/29 10:00:58;;;;;;;30.52;22.45;;;22.30;99.90;;;;;;4958801;28;210668;-71
2023/06/29 10:03:30;;;;;;;28.98;21.75;;;22.20;99.90;;;;;;5016409;28;20045;-71
2023/06/29 10:06:21;;;;;;;30.05;20.90;;;22.20;99.90;;;;;;4966631;28;208132;-73
2023/06/29 10:08:55;;;;;;;34.20;22.63;;;22.00;99.90;;;;;;5012718;28;20392;-73
2023/06/29 10:11:26;;;;;;;33.30;23.33;;;21.90;99.90;;;;;;4980076;28;212099;-73
2023/06/29 10:13:54;;;;;;;29.48;22.23;;;21.90;99.90;;;;;;5007066;28;20519;-72
2023/06/29 10:16:23;;;;;;;31.67;22.25;;;21.80;99.90;;;;;;4966006;28;207062;-72
2023/06/29 10:18:54;;;;;;;30.98;22.98;;;21.70;99.90;;;;;;5011115;28;20069;-72
2023/06/29 10:21:20;;;;;;;29.45;23.30;;;21.70;99.90;;;;;;4969843;28;219594;-72
2023/06/29 10:23:48;;;;;;;31.67;22.50;;;21.60;99.90;;;;;;4992129;28;20053;-73
2023/06/29 10:26:15;;;;;;;30.60;23.25;;;21.60;99.90;;;;;;4958726;28;205515;-73
2023/06/29 10:28:41;;;;;;;29.98;23.55;;;21.50;99.90;;;;;;5011841;28;20061;-73
2023/06/29 10:31:07;;;;;;;33.13;23.30;;;21.40;99.90;;;;;;4953180;28;210565;-73
2023/06/29 10:33:45;;;;;;;30.95;23.40;;;21.50;99.90;;;;;;4988204;28;20054;-74
2023/06/29 10:36:13;;;;;;;31.65;22.83;;;21.60;99.90;;;;;;4975365;28;207852;-73
2023/06/29 10:38:40;;;;;;;29.77;22.65;;;21.80;99.90;;;;;;5011822;28;20050;-73
2023/06/29 10:41:06;;;;;;;31.77;23.45;;;22.20;99.90;;;;;;4950367;28;214512;-72
2023/06/29 10:43:55;;;;;;;31.63;23.52;;;22.30;99.90;;;;;;4991778;28;20053;-72
2023/06/29 10:47:00;;;;;;;30.52;22.67;;;22.60;99.90;;;;;;4942630;28;213212;-72
2023/06/29 10:49:26;;;;;;;29.88;22.90;;;23.00;99.90;;;;;;4907052;28;207724;-73
2023/06/29 10:52:03;;;;;;;27.33;21.63;;;23.20;99.90;;;;;;4969787;28;20058;-73
2023/06/29 10:54:29;;;;;;;28.27;22.02;;;23.40;99.90;;;;;;4899623;28;170551;-73
2023/06/29 10:57:06;;;;;;;25.90;20.15;;;23.50;99.90;;;;;;4946075;28;20051;-73
2023/06/29 10:59:34;;;;;;;30.67;22.03;;;23.50;99.90;;;;;;4924646;28;206852;-72
2023/06/29 11:02:01;;;;;;;28.15;20.63;;;23.20;99.90;;;;;;4950690;28;20047;-73
2023/06/29 11:04:28;;;;;;;26.90;20.55;;;23.00;99.90;;;;;;4911828;28;206365;-72
2023/06/29 11:06:54;;;;;;;27.13;21.10;;;22.90;99.90;;;;;;4964654;28;20050;-73
2023/06/29 11:09:20;;;;;;;28.38;19.90;;;22.70;99.90;;;;;;4911973;28;205883;-71
2023/06/29 11:11:48;;;;;;;25.77;20.50;;;22.60;99.90;;;;;;4952819;28;20047;-72
2023/06/29 11:14:15;;;;;;;26.80;19.98;;;22.60;99.90;;;;;;4936012;28;107065;-72
2023/06/29 11:16:41;;;;;;;26.95;19.70;;;22.80;99.90;;;;;;4922843;28;20066;-72
2023/06/29 11:19:08;;;;;;;27.33;19.73;;;22.70;99.90;;;;;;4969039;28;20043;-72
2023/06/29 11:21:34;;;;;;;27.58;20.45;;;22.80;99.90;;;;;;4974088;28;212290;-72
2023/06/29 11:24:00;;;;;;;27.67;20.77;;;22.70;99.90;;;;;;5006165;28;20046;-72
2023/06/29 11:26:26;;;;;;;31.55;21.58;;;22.90;99.90;;;;;;4964592;28;215829;-72
2023/06/29 11:28:54;;;;;;;27.42;21.02;;;23.20;99.90;;;;;;4986101;28;20058;-72
2023/06/29 11:31:20;;;;;;;27.13;21.35;;;23.20;99.90;;;;;;4936062;28;206381;-72
2023/06/29 11:33:50;;;;;;;29.02;21.23;;;23.10;99.90;;;;;;4989397;28;20062;-72
2023/06/29 11:36:48;;;;;;;28.87;21.43;;;23.00;99.90;;;;;;4967776;28;207171;-71
2023/06/29 11:39:15;;;;;;;29.77;22.20;;;23.20;99.90;;;;;;4960994;28;208052;-70
2023/06/29 11:41:41;;;;;;;31.50;23.38;;;23.40;99.90;;;;;;4993360;28;197458;-71
2023/06/29 11:44:08;;;;;;;31.23;23.77;;;23.60;99.90;;;;;;5011533;28;20054;-72
2023/06/29 11:46:35;;;;;;;32.35;25.08;;;23.90;99.90;;;;;;4974775;28;210573;-73
2023/06/29 11:49:05;;;;;;;29.40;23.27;;;24.00;99.90;;;;;;4987904;28;20046;-73
2023/06/29 11:51:33;;;;;;;32.30;24.63;;;24.10;99.90;;;;;;4964810;28;206908;-72
2023/06/29 11:54:00;;;;;;;30.88;23.00;;;24.00;99.90;;;;;;4984737;28;20752;-72
2023/06/29 11:56:33;;;;;;;28.80;23.55;;;24.10;99.90;;;;;;4920673;28;208360;-72
2023/06/29 11:59:10;;;;;;;31.63;23.95;;;24.10;99.90;;;;;;4986638;28;20065;-72
2023/06/29 12:01:38;;;;;;;31.58;24.33;;;24.40;99.90;;;;;;4955231;28;113831;-72
2023/06/29 12:04:05;;;;;;;30.70;24.52;;;24.40;99.90;;;;;;4980622;28;20057;-72
2023/06/29 12:06:33;;;;;;;32.13;24.60;;;24.50;99.90;;;;;;4945194;28;207329;-71
2023/06/29 12:08:59;;;;;;;30.42;24.13;;;24.60;99.90;;;;;;4989713;28;20057;-72
2023/06/29 12:11:26;;;;;;;32.35;23.23;;;25.00;99.90;;;;;;4952465;28;210708;-71
2023/06/29 12:13:54;;;;;;;27.88;22.33;;;25.20;99.90;;;;;;4983355;28;20591;-72
2023/06/29 12:16:20;;;;;;;29.90;22.23;;;25.70;99.90;;;;;;4955319;28;207253;-73
2023/06/29 12:18:51;;;;;;;28.95;22.92;;;26.00;99.90;;;;;;4984499;28;20081;-72
2023/06/29 12:21:19;;;;;;;26.95;21.13;;;26.30;99.90;;;;;;4925477;28;207743;-72
2023/06/29 12:23:45;;;;;;;25.20;19.70;;;26.70;99.90;;;;;;4986618;28;20440;-72